sensor_id;sensor_type;location;lat;lon;timestamp;P1;durP1;ratioP1;P2;durP2;ratioP2
8480;SDS011;4277;51.354;6.740;2022-12-13T00:02:19;24.50;;;15.17;;
8480;SDS011;4277;51.354;6.740;2022-12-13T00:04:45;25.23;;;14.17;;
8480;SDS011;4277;51.354;6.740;2022-12-13T00:07:11;23.20;;;13.90;;
8480;SDS011;4277;51.354;6.740;2022-12-13T00:09:37;23.67;;;14.20;;
8480;SDS011;4277;51.354;6.740;2022-12-13T00:12:03;21.83;;;13.40;;
8480;SDS011;4277;51.354;6.740;2022-12-13T00:14:29;24.10;;;13.63;;
8480;SDS011;4277;51.354;6.740;2022-12-13T00:16:56;23.70;;;13.20;;
8480;SDS011;4277;51.354;6.740;2022-12-13T00:19:22;27.10;;;14.30;;
8480;SDS011;4277;51.354;6.740;2022-12-13T00:21:48;24.00;;;14.43;;
8480;SDS011;4277;51.354;6.740;2022-12-13T00:24:15;22.47;;;13.80;;
8480;SDS011;4277;51.354;6.740;2022-12-13T00:26:41;24.90;;;14.37;;
8480;SDS011;4277;51.354;6.740;2022-12-13T00:29:07;25.93;;;14.57;;
8480;SDS011;4277;51.354;6.740;2022-12-13T00:31:33;24.23;;;13.87;;
8480;SDS011;4277;51.354;6.740;2022-12-13T00:34:00;22.67;;;13.07;;
8480;SDS011;4277;51.354;6.740;2022-12-13T00:36:26;26.13;;;13.23;;
8480;SDS011;4277;51.354;6.740;2022-12-13T00:38:52;24.77;;;13.87;;
8480;SDS011;4277;51.354;6.740;2022-12-13T00:41:24;24.87;;;13.57;;
8480;SDS011;4277;51.354;6.740;2022-12-13T00:43:50;25.57;;;14.20;;
8480;SDS011;4277;51.354;6.740;2022-12-13T00:46:17;26.13;;;14.00;;
8480;SDS011;4277;51.354;6.740;2022-12-13T00:48:47;24.80;;;13.60;;
8480;SDS011;4277;51.354;6.740;2022-12-13T00:51:13;23.10;;;13.53;;
8480;SDS011;4277;51.354;6.740;2022-12-13T00:53:39;21.37;;;12.97;;
8480;SDS011;4277;51.354;6.740;2022-12-13T00:56:09;24.03;;;14.53;;
8480;SDS011;4277;51.354;6.740;2022-12-13T00:58:35;24.07;;;13.57;;
8480;SDS011;4277;51.354;6.740;2022-12-13T01:01:02;25.33;;;14.47;;
8480;SDS011;4277;51.354;6.740;2022-12-13T01:03:28;23.50;;;13.80;;
8480;SDS011;4277;51.354;6.740;2022-12-13T01:05:54;19.60;;;12.60;;
8480;SDS011;4277;51.354;6.740;2022-12-13T01:08:20;23.07;;;13.20;;
8480;SDS011;4277;51.354;6.740;2022-12-13T01:10:46;23.40;;;13.40;;
8480;SDS011;4277;51.354;6.740;2022-12-13T01:13:14;23.43;;;13.03;;
8480;SDS011;4277;51.354;6.740;2022-12-13T01:15:40;21.40;;;12.97;;
8480;SDS011;4277;51.354;6.740;2022-12-13T01:18:07;22.00;;;13.33;;
8480;SDS011;4277;51.354;6.740;2022-12-13T01:20:33;23.23;;;12.93;;
8480;SDS011;4277;51.354;6.740;2022-12-13T01:22:59;21.23;;;12.70;;
8480;SDS011;4277;51.354;6.740;2022-12-13T01:25:25;23.40;;;12.93;;
8480;SDS011;4277;51.354;6.740;2022-12-13T01:27:51;21.50;;;12.77;;
8480;SDS011;4277;51.354;6.740;2022-12-13T01:30:17;23.97;;;13.73;;
8480;SDS011;4277;51.354;6.740;2022-12-13T01:32:43;24.37;;;14.23;;
8480;SDS011;4277;51.354;6.740;2022-12-13T01:35:09;23.43;;;13.53;;
8480;SDS011;4277;51.354;6.740;2022-12-13T01:37:37;25.60;;;13.77;;
8480;SDS011;4277;51.354;6.740;2022-12-13T01:40:03;26.30;;;14.43;;
8480;SDS011;4277;51.354;6.740;2022-12-13T01:42:30;26.83;;;14.27;;
8480;SDS011;4277;51.354;6.740;2022-12-13T01:45:11;22.73;;;13.73;;
8480;SDS011;4277;51.354;6.740;2022-12-13T01:47:43;24.17;;;13.77;;
8480;SDS011;4277;51.354;6.740;2022-12-13T01:50:12;23.40;;;12.73;;
8480;SDS011;4277;51.354;6.740;2022-12-13T01:52:39;23.83;;;13.33;;
8480;SDS011;4277;51.354;6.740;2022-12-13T01:55:07;23.53;;;13.27;;
8480;SDS011;4277;51.354;6.740;2022-12-13T01:57:33;21.20;;;13.23;;
8480;SDS011;4277;51.354;6.740;2022-12-13T02:00:01;23.03;;;13.23;;
8480;SDS011;4277;51.354;6.740;2022-12-13T02:02:28;21.23;;;12.37;;
8480;SDS011;4277;51.354;6.740;2022-12-13T02:04:55;22.37;;;12.23;;
8480;SDS011;4277;51.354;6.740;2022-12-13T02:07:26;20.30;;;12.60;;
8480;SDS011;4277;51.354;6.740;2022-12-13T02:09:54;23.93;;;13.00;;
8480;SDS011;4277;51.354;6.740;2022-12-13T02:12:21;23.03;;;12.97;;
8480;SDS011;4277;51.354;6.740;2022-12-13T02:14:47;21.80;;;13.20;;
8480;SDS011;4277;51.354;6.740;2022-12-13T02:17:17;21.83;;;13.30;;
8480;SDS011;4277;51.354;6.740;2022-12-13T02:22:47;21.07;;;12.00;;
8480;SDS011;4277;51.354;6.740;2022-12-13T02:25:39;22.93;;;13.27;;
8480;SDS011;4277;51.354;6.740;2022-12-13T02:28:12;24.13;;;12.33;;
8480;SDS011;4277;51.354;6.740;2022-12-13T02:30:50;24.67;;;13.57;;
8480;SDS011;4277;51.354;6.740;2022-12-13T02:38:35;23.53;;;13.90;;
8480;SDS011;4277;51.354;6.740;2022-12-13T02:41:14;23.40;;;13.53;;
8480;SDS011;4277;51.354;6.740;2022-12-13T02:43:46;24.93;;;14.13;;
8480;SDS011;4277;51.354;6.740;2022-12-13T02:46:15;23.93;;;13.90;;
8480;SDS011;4277;51.354;6.740;2022-12-13T02:48:43;22.13;;;12.83;;
8480;SDS011;4277;51.354;6.740;2022-12-13T02:51:10;23.10;;;13.63;;
8480;SDS011;4277;51.354;6.740;2022-12-13T02:53:37;23.60;;;13.70;;
8480;SDS011;4277;51.354;6.740;2022-12-13T02:56:04;22.77;;;13.60;;
8480;SDS011;4277;51.354;6.740;2022-12-13T02:58:35;20.63;;;13.10;;
8480;SDS011;4277;51.354;6.740;2022-12-13T03:06:20;22.63;;;13.23;;
8480;SDS011;4277;51.354;6.740;2022-12-13T03:08:59;25.80;;;13.83;;
8480;SDS011;4277;51.354;6.740;2022-12-13T03:11:35;21.93;;;12.93;;
8480;SDS011;4277;51.354;6.740;2022-12-13T03:14:22;27.10;;;14.73;;
8480;SDS011;4277;51.354;6.740;2022-12-13T03:16:49;22.73;;;13.77;;
8480;SDS011;4277;51.354;6.740;2022-12-13T03:19:16;25.20;;;14.90;;
8480;SDS011;4277;51.354;6.740;2022-12-13T03:21:44;27.80;;;15.50;;
8480;SDS011;4277;51.354;6.740;2022-12-13T03:24:11;26.83;;;14.40;;
8480;SDS011;4277;51.354;6.740;2022-12-13T03:26:38;23.27;;;14.30;;
8480;SDS011;4277;51.354;6.740;2022-12-13T03:29:04;22.27;;;13.70;;
8480;SDS011;4277;51.354;6.740;2022-12-13T03:31:30;23.83;;;14.00;;
8480;SDS011;4277;51.354;6.740;2022-12-13T03:33:57;26.17;;;14.00;;
8480;SDS011;4277;51.354;6.740;2022-12-13T03:36:23;24.57;;;14.47;;
8480;SDS011;4277;51.354;6.740;2022-12-13T03:38:49;23.53;;;13.37;;
8480;SDS011;4277;51.354;6.740;2022-12-13T03:41:17;23.17;;;13.50;;
8480;SDS011;4277;51.354;6.740;2022-12-13T03:43:44;23.83;;;13.40;;
8480;SDS011;4277;51.354;6.740;2022-12-13T03:46:11;23.03;;;13.33;;
8480;SDS011;4277;51.354;6.740;2022-12-13T03:48:37;22.73;;;13.13;;
8480;SDS011;4277;51.354;6.740;2022-12-13T03:51:03;26.03;;;14.10;;
8480;SDS011;4277;51.354;6.740;2022-12-13T03:53:29;122.10;;;17.53;;
8480;SDS011;4277;51.354;6.740;2022-12-13T03:55:55;23.87;;;13.27;;
8480;SDS011;4277;51.354;6.740;2022-12-13T03:58:20;22.43;;;13.00;;
8480;SDS011;4277;51.354;6.740;2022-12-13T04:00:47;22.40;;;13.20;;
8480;SDS011;4277;51.354;6.740;2022-12-13T04:03:13;22.30;;;13.47;;
8480;SDS011;4277;51.354;6.740;2022-12-13T04:05:38;23.27;;;13.67;;
8480;SDS011;4277;51.354;6.740;2022-12-13T04:08:04;21.70;;;12.17;;
8480;SDS011;4277;51.354;6.740;2022-12-13T04:10:30;23.60;;;12.93;;
8480;SDS011;4277;51.354;6.740;2022-12-13T04:12:55;24.50;;;13.47;;
8480;SDS011;4277;51.354;6.740;2022-12-13T04:15:39;20.90;;;12.63;;
8480;SDS011;4277;51.354;6.740;2022-12-13T04:18:12;24.47;;;13.63;;
8480;SDS011;4277;51.354;6.740;2022-12-13T04:20:42;24.27;;;13.63;;
8480;SDS011;4277;51.354;6.740;2022-12-13T04:23:07;24.40;;;13.47;;
8480;SDS011;4277;51.354;6.740;2022-12-13T04:25:33;25.63;;;14.00;;
8480;SDS011;4277;51.354;6.740;2022-12-13T04:27:58;24.67;;;13.23;;
8480;SDS011;4277;51.354;6.740;2022-12-13T04:30:24;23.03;;;13.40;;
8480;SDS011;4277;51.354;6.740;2022-12-13T04:32:49;23.77;;;13.33;;
8480;SDS011;4277;51.354;6.740;2022-12-13T04:35:15;24.10;;;13.67;;
8480;SDS011;4277;51.354;6.740;2022-12-13T04:37:41;22.30;;;13.53;;
8480;SDS011;4277;51.354;6.740;2022-12-13T04:40:07;25.67;;;13.50;;
8480;SDS011;4277;51.354;6.740;2022-12-13T04:42:33;24.40;;;14.13;;
8480;SDS011;4277;51.354;6.740;2022-12-13T04:44:59;24.57;;;13.20;;
8480;SDS011;4277;51.354;6.740;2022-12-13T04:47:25;25.73;;;13.70;;
8480;SDS011;4277;51.354;6.740;2022-12-13T04:49:51;22.33;;;13.07;;
8480;SDS011;4277;51.354;6.740;2022-12-13T04:52:17;27.07;;;13.70;;
8480;SDS011;4277;51.354;6.740;2022-12-13T04:54:43;25.90;;;14.53;;
8480;SDS011;4277;51.354;6.740;2022-12-13T04:57:09;25.17;;;13.77;;
8480;SDS011;4277;51.354;6.740;2022-12-13T04:59:35;24.93;;;14.27;;
8480;SDS011;4277;51.354;6.740;2022-12-13T05:02:02;223.00;;;20.63;;
8480;SDS011;4277;51.354;6.740;2022-12-13T05:04:28;22.90;;;13.00;;
8480;SDS011;4277;51.354;6.740;2022-12-13T05:06:54;24.93;;;13.97;;
8480;SDS011;4277;51.354;6.740;2022-12-13T05:09:21;25.10;;;13.53;;
8480;SDS011;4277;51.354;6.740;2022-12-13T05:11:47;27.90;;;14.70;;
8480;SDS011;4277;51.354;6.740;2022-12-13T05:14:13;27.90;;;14.77;;
8480;SDS011;4277;51.354;6.740;2022-12-13T05:16:39;23.80;;;14.63;;
8480;SDS011;4277;51.354;6.740;2022-12-13T05:19:05;24.23;;;13.80;;
8480;SDS011;4277;51.354;6.740;2022-12-13T05:21:31;24.43;;;13.43;;
8480;SDS011;4277;51.354;6.740;2022-12-13T05:23:59;24.87;;;14.40;;
8480;SDS011;4277;51.354;6.740;2022-12-13T05:26:25;25.70;;;14.47;;
8480;SDS011;4277;51.354;6.740;2022-12-13T05:28:51;27.67;;;15.43;;
8480;SDS011;4277;51.354;6.740;2022-12-13T05:31:17;26.67;;;14.37;;
8480;SDS011;4277;51.354;6.740;2022-12-13T05:33:42;23.77;;;14.50;;
8480;SDS011;4277;51.354;6.740;2022-12-13T05:36:08;25.27;;;14.80;;
8480;SDS011;4277;51.354;6.740;2022-12-13T05:38:34;28.07;;;14.77;;
8480;SDS011;4277;51.354;6.740;2022-12-13T05:41:00;27.43;;;14.47;;
8480;SDS011;4277;51.354;6.740;2022-12-13T05:43:26;26.13;;;14.53;;
8480;SDS011;4277;51.354;6.740;2022-12-13T05:45:52;26.93;;;14.50;;
8480;SDS011;4277;51.354;6.740;2022-12-13T05:48:18;27.77;;;14.97;;
8480;SDS011;4277;51.354;6.740;2022-12-13T05:50:44;28.20;;;15.07;;
8480;SDS011;4277;51.354;6.740;2022-12-13T05:53:10;24.33;;;14.13;;
8480;SDS011;4277;51.354;6.740;2022-12-13T05:55:36;26.37;;;15.50;;
8480;SDS011;4277;51.354;6.740;2022-12-13T05:58:03;25.17;;;14.33;;
8480;SDS011;4277;51.354;6.740;2022-12-13T06:00:29;27.50;;;15.33;;
8480;SDS011;4277;51.354;6.740;2022-12-13T06:02:55;24.17;;;13.40;;
8480;SDS011;4277;51.354;6.740;2022-12-13T06:05:21;29.47;;;15.83;;
8480;SDS011;4277;51.354;6.740;2022-12-13T06:07:47;26.07;;;15.33;;
8480;SDS011;4277;51.354;6.740;2022-12-13T06:10:13;27.10;;;15.07;;
8480;SDS011;4277;51.354;6.740;2022-12-13T06:12:39;28.20;;;14.80;;
8480;SDS011;4277;51.354;6.740;2022-12-13T06:15:05;24.13;;;14.23;;
8480;SDS011;4277;51.354;6.740;2022-12-13T06:17:31;27.67;;;15.10;;
8480;SDS011;4277;51.354;6.740;2022-12-13T06:19:57;24.87;;;13.73;;
8480;SDS011;4277;51.354;6.740;2022-12-13T06:22:23;24.97;;;14.13;;
8480;SDS011;4277;51.354;6.740;2022-12-13T06:24:49;32.17;;;15.97;;
8480;SDS011;4277;51.354;6.740;2022-12-13T06:27:16;36.63;;;15.73;;
8480;SDS011;4277;51.354;6.740;2022-12-13T06:29:41;27.33;;;13.80;;
8480;SDS011;4277;51.354;6.740;2022-12-13T06:32:07;30.27;;;15.10;;
8480;SDS011;4277;51.354;6.740;2022-12-13T06:34:34;28.97;;;14.43;;
8480;SDS011;4277;51.354;6.740;2022-12-13T06:37:01;33.63;;;15.13;;
8480;SDS011;4277;51.354;6.740;2022-12-13T06:39:27;27.63;;;14.37;;
8480;SDS011;4277;51.354;6.740;2022-12-13T06:41:54;27.97;;;15.07;;
8480;SDS011;4277;51.354;6.740;2022-12-13T06:44:20;50.83;;;16.33;;
8480;SDS011;4277;51.354;6.740;2022-12-13T06:46:46;26.23;;;14.97;;
8480;SDS011;4277;51.354;6.740;2022-12-13T06:49:12;29.37;;;15.63;;
8480;SDS011;4277;51.354;6.740;2022-12-13T06:51:38;28.73;;;15.00;;
8480;SDS011;4277;51.354;6.740;2022-12-13T06:54:04;28.20;;;15.60;;
8480;SDS011;4277;51.354;6.740;2022-12-13T06:56:30;28.93;;;14.23;;
8480;SDS011;4277;51.354;6.740;2022-12-13T06:58:56;29.73;;;15.37;;
8480;SDS011;4277;51.354;6.740;2022-12-13T07:01:23;28.33;;;15.47;;
8480;SDS011;4277;51.354;6.740;2022-12-13T07:03:49;33.37;;;16.83;;
8480;SDS011;4277;51.354;6.740;2022-12-13T07:06:15;30.67;;;15.67;;
8480;SDS011;4277;51.354;6.740;2022-12-13T07:08:42;29.90;;;16.37;;
8480;SDS011;4277;51.354;6.740;2022-12-13T07:11:19;32.43;;;17.17;;
8480;SDS011;4277;51.354;6.740;2022-12-13T07:13:45;29.47;;;16.10;;
8480;SDS011;4277;51.354;6.740;2022-12-13T07:16:11;28.90;;;16.27;;
8480;SDS011;4277;51.354;6.740;2022-12-13T07:18:37;28.03;;;15.90;;
8480;SDS011;4277;51.354;6.740;2022-12-13T07:21:06;29.63;;;16.50;;
8480;SDS011;4277;51.354;6.740;2022-12-13T07:23:34;30.30;;;16.13;;
8480;SDS011;4277;51.354;6.740;2022-12-13T07:26:00;29.73;;;15.33;;
8480;SDS011;4277;51.354;6.740;2022-12-13T07:28:26;30.87;;;16.40;;
8480;SDS011;4277;51.354;6.740;2022-12-13T07:30:52;29.60;;;15.90;;
8480;SDS011;4277;51.354;6.740;2022-12-13T07:33:17;31.23;;;16.37;;
8480;SDS011;4277;51.354;6.740;2022-12-13T07:35:43;32.77;;;15.37;;
8480;SDS011;4277;51.354;6.740;2022-12-13T07:38:09;30.17;;;16.23;;
8480;SDS011;4277;51.354;6.740;2022-12-13T07:40:36;30.67;;;16.07;;
8480;SDS011;4277;51.354;6.740;2022-12-13T07:43:03;29.33;;;16.37;;
8480;SDS011;4277;51.354;6.740;2022-12-13T07:45:29;32.97;;;16.80;;
8480;SDS011;4277;51.354;6.740;2022-12-13T07:47:55;30.73;;;16.90;;
8480;SDS011;4277;51.354;6.740;2022-12-13T07:50:21;31.80;;;17.33;;
8480;SDS011;4277;51.354;6.740;2022-12-13T07:52:47;32.07;;;16.43;;
8480;SDS011;4277;51.354;6.740;2022-12-13T07:55:14;33.83;;;18.30;;
8480;SDS011;4277;51.354;6.740;2022-12-13T07:57:40;35.47;;;18.13;;
8480;SDS011;4277;51.354;6.740;2022-12-13T08:00:06;32.43;;;17.43;;
8480;SDS011;4277;51.354;6.740;2022-12-13T08:02:32;35.37;;;18.77;;
8480;SDS011;4277;51.354;6.740;2022-12-13T08:04:58;39.33;;;19.23;;
8480;SDS011;4277;51.354;6.740;2022-12-13T08:07:23;32.93;;;17.87;;
8480;SDS011;4277;51.354;6.740;2022-12-13T08:09:48;34.50;;;18.27;;
8480;SDS011;4277;51.354;6.740;2022-12-13T08:12:14;37.17;;;17.13;;
8480;SDS011;4277;51.354;6.740;2022-12-13T08:14:40;33.30;;;17.63;;
8480;SDS011;4277;51.354;6.740;2022-12-13T08:17:05;33.77;;;18.47;;
8480;SDS011;4277;51.354;6.740;2022-12-13T08:19:31;32.87;;;18.17;;
8480;SDS011;4277;51.354;6.740;2022-12-13T08:21:56;31.90;;;17.83;;
8480;SDS011;4277;51.354;6.740;2022-12-13T08:24:23;32.00;;;17.10;;
8480;SDS011;4277;51.354;6.740;2022-12-13T08:26:49;32.73;;;17.20;;
8480;SDS011;4277;51.354;6.740;2022-12-13T08:29:15;35.40;;;18.50;;
8480;SDS011;4277;51.354;6.740;2022-12-13T08:31:40;29.40;;;17.10;;
8480;SDS011;4277;51.354;6.740;2022-12-13T08:34:06;211.17;;;24.23;;
8480;SDS011;4277;51.354;6.740;2022-12-13T08:36:32;29.17;;;16.30;;
8480;SDS011;4277;51.354;6.740;2022-12-13T08:38:58;33.53;;;17.73;;
8480;SDS011;4277;51.354;6.740;2022-12-13T08:41:26;33.40;;;17.30;;
8480;SDS011;4277;51.354;6.740;2022-12-13T08:43:52;31.13;;;17.07;;
8480;SDS011;4277;51.354;6.740;2022-12-13T08:46:18;33.73;;;17.30;;
8480;SDS011;4277;51.354;6.740;2022-12-13T08:48:43;34.13;;;18.03;;
8480;SDS011;4277;51.354;6.740;2022-12-13T08:51:09;31.43;;;17.63;;
8480;SDS011;4277;51.354;6.740;2022-12-13T08:53:37;30.67;;;16.67;;
8480;SDS011;4277;51.354;6.740;2022-12-13T08:56:03;29.53;;;17.13;;
8480;SDS011;4277;51.354;6.740;2022-12-13T08:58:31;33.53;;;18.00;;
8480;SDS011;4277;51.354;6.740;2022-12-13T09:00:57;32.30;;;17.53;;
8480;SDS011;4277;51.354;6.740;2022-12-13T09:03:22;31.03;;;17.27;;
8480;SDS011;4277;51.354;6.740;2022-12-13T09:05:48;33.73;;;18.10;;
8480;SDS011;4277;51.354;6.740;2022-12-13T09:08:14;30.20;;;16.83;;
8480;SDS011;4277;51.354;6.740;2022-12-13T09:10:39;31.17;;;17.97;;
8480;SDS011;4277;51.354;6.740;2022-12-13T09:13:05;30.37;;;17.10;;
8480;SDS011;4277;51.354;6.740;2022-12-13T09:15:31;30.53;;;17.10;;
8480;SDS011;4277;51.354;6.740;2022-12-13T09:17:56;34.83;;;18.90;;
8480;SDS011;4277;51.354;6.740;2022-12-13T09:20:22;33.40;;;17.97;;
8480;SDS011;4277;51.354;6.740;2022-12-13T09:22:49;28.00;;;17.33;;
8480;SDS011;4277;51.354;6.740;2022-12-13T09:25:14;30.10;;;17.23;;
8480;SDS011;4277;51.354;6.740;2022-12-13T09:27:40;29.70;;;17.27;;
8480;SDS011;4277;51.354;6.740;2022-12-13T09:30:06;31.60;;;16.60;;
8480;SDS011;4277;51.354;6.740;2022-12-13T09:32:36;29.93;;;16.57;;
8480;SDS011;4277;51.354;6.740;2022-12-13T09:35:03;29.67;;;16.43;;
8480;SDS011;4277;51.354;6.740;2022-12-13T09:37:28;26.03;;;15.83;;
8480;SDS011;4277;51.354;6.740;2022-12-13T09:39:54;30.20;;;16.20;;
8480;SDS011;4277;51.354;6.740;2022-12-13T09:42:24;27.43;;;14.97;;
8480;SDS011;4277;51.354;6.740;2022-12-13T09:44:51;26.50;;;15.40;;
8480;SDS011;4277;51.354;6.740;2022-12-13T09:47:23;28.87;;;15.23;;
8480;SDS011;4277;51.354;6.740;2022-12-13T09:49:52;28.87;;;17.00;;
8480;SDS011;4277;51.354;6.740;2022-12-13T09:52:17;27.70;;;15.93;;
8480;SDS011;4277;51.354;6.740;2022-12-13T09:54:44;27.23;;;15.10;;
8480;SDS011;4277;51.354;6.740;2022-12-13T09:57:15;25.10;;;15.03;;
8480;SDS011;4277;51.354;6.740;2022-12-13T09:59:42;28.53;;;16.03;;
8480;SDS011;4277;51.354;6.740;2022-12-13T10:02:15;25.50;;;15.03;;
8480;SDS011;4277;51.354;6.740;2022-12-13T10:04:42;24.50;;;14.17;;
8480;SDS011;4277;51.354;6.740;2022-12-13T10:07:13;23.43;;;14.23;;
8480;SDS011;4277;51.354;6.740;2022-12-13T10:09:41;23.57;;;13.77;;
8480;SDS011;4277;51.354;6.740;2022-12-13T10:12:07;26.13;;;14.37;;
8480;SDS011;4277;51.354;6.740;2022-12-13T10:14:36;23.67;;;13.07;;
8480;SDS011;4277;51.354;6.740;2022-12-13T10:17:04;19.90;;;12.90;;
8480;SDS011;4277;51.354;6.740;2022-12-13T10:19:35;24.13;;;14.13;;
8480;SDS011;4277;51.354;6.740;2022-12-13T10:22:04;21.57;;;13.03;;
8480;SDS011;4277;51.354;6.740;2022-12-13T10:27:19;21.53;;;12.50;;
8480;SDS011;4277;51.354;6.740;2022-12-13T10:29:59;22.10;;;13.20;;
8480;SDS011;4277;51.354;6.740;2022-12-13T10:32:26;22.23;;;13.10;;
8480;SDS011;4277;51.354;6.740;2022-12-13T10:34:52;21.70;;;13.33;;
8480;SDS011;4277;51.354;6.740;2022-12-13T10:39:56;23.43;;;13.73;;
8480;SDS011;4277;51.354;6.740;2022-12-13T10:42:22;20.97;;;12.87;;
8480;SDS011;4277;51.354;6.740;2022-12-13T10:44:48;21.87;;;12.70;;
8480;SDS011;4277;51.354;6.740;2022-12-13T10:47:32;20.47;;;11.90;;
8480;SDS011;4277;51.354;6.740;2022-12-13T10:50:00;18.73;;;11.73;;
8480;SDS011;4277;51.354;6.740;2022-12-13T10:52:34;22.93;;;13.57;;
8480;SDS011;4277;51.354;6.740;2022-12-13T10:55:05;23.37;;;13.17;;
8480;SDS011;4277;51.354;6.740;2022-12-13T10:57:52;20.97;;;13.07;;
8480;SDS011;4277;51.354;6.740;2022-12-13T11:00:37;18.10;;;11.33;;
8480;SDS011;4277;51.354;6.740;2022-12-13T11:03:05;21.10;;;11.73;;
8480;SDS011;4277;51.354;6.740;2022-12-13T11:05:33;21.60;;;12.23;;
8480;SDS011;4277;51.354;6.740;2022-12-13T11:11:00;20.77;;;12.57;;
8480;SDS011;4277;51.354;6.740;2022-12-13T11:13:34;20.67;;;12.13;;
8480;SDS011;4277;51.354;6.740;2022-12-13T11:16:30;19.40;;;12.37;;
8480;SDS011;4277;51.354;6.740;2022-12-13T11:19:02;21.37;;;13.10;;
8480;SDS011;4277;51.354;6.740;2022-12-13T11:21:44;18.70;;;11.77;;
8480;SDS011;4277;51.354;6.740;2022-12-13T11:24:16;19.67;;;12.13;;
8480;SDS011;4277;51.354;6.740;2022-12-13T11:26:59;20.23;;;11.83;;
8480;SDS011;4277;51.354;6.740;2022-12-13T11:38:26;19.03;;;11.50;;
8480;SDS011;4277;51.354;6.740;2022-12-13T11:41:08;18.37;;;10.70;;
8480;SDS011;4277;51.354;6.740;2022-12-13T11:43:41;18.37;;;10.80;;
8480;SDS011;4277;51.354;6.740;2022-12-13T11:49:03;16.57;;;10.83;;
8480;SDS011;4277;51.354;6.740;2022-12-13T11:51:43;18.67;;;11.10;;
8480;SDS011;4277;51.354;6.740;2022-12-13T11:54:27;17.70;;;10.70;;
8480;SDS011;4277;51.354;6.740;2022-12-13T11:57:02;20.00;;;11.30;;
8480;SDS011;4277;51.354;6.740;2022-12-13T11:59:38;16.57;;;10.30;;
8480;SDS011;4277;51.354;6.740;2022-12-13T12:02:19;17.60;;;10.57;;
8480;SDS011;4277;51.354;6.740;2022-12-13T12:05:01;18.87;;;11.57;;
8480;SDS011;4277;51.354;6.740;2022-12-13T12:07:43;18.93;;;10.77;;
8480;SDS011;4277;51.354;6.740;2022-12-13T12:12:40;16.80;;;10.40;;
8480;SDS011;4277;51.354;6.740;2022-12-13T12:15:18;16.77;;;10.43;;
8480;SDS011;4277;51.354;6.740;2022-12-13T12:17:45;18.37;;;10.70;;
8480;SDS011;4277;51.354;6.740;2022-12-13T12:20:12;16.47;;;10.57;;
8480;SDS011;4277;51.354;6.740;2022-12-13T12:22:42;16.17;;;10.73;;
8480;SDS011;4277;51.354;6.740;2022-12-13T12:25:21;17.00;;;10.10;;
8480;SDS011;4277;51.354;6.740;2022-12-13T12:28:03;16.33;;;10.10;;
8480;SDS011;4277;51.354;6.740;2022-12-13T12:30:54;17.57;;;9.97;;
8480;SDS011;4277;51.354;6.740;2022-12-13T12:36:01;15.83;;;9.87;;
8480;SDS011;4277;51.354;6.740;2022-12-13T12:43:46;18.63;;;11.47;;
8480;SDS011;4277;51.354;6.740;2022-12-13T12:51:06;15.73;;;9.97;;
8480;SDS011;4277;51.354;6.740;2022-12-13T13:03:39;13.97;;;8.97;;
8480;SDS011;4277;51.354;6.740;2022-12-13T13:11:02;13.73;;;8.70;;
8480;SDS011;4277;51.354;6.740;2022-12-13T13:13:36;14.43;;;8.33;;
8480;SDS011;4277;51.354;6.740;2022-12-13T13:18:55;13.83;;;8.23;;
8480;SDS011;4277;51.354;6.740;2022-12-13T13:23:48;15.87;;;8.97;;
8480;SDS011;4277;51.354;6.740;2022-12-13T13:26:33;13.90;;;8.73;;
8480;SDS011;4277;51.354;6.740;2022-12-13T13:29:45;12.33;;;8.20;;
8480;SDS011;4277;51.354;6.740;2022-12-13T13:32:32;11.67;;;7.80;;
8480;SDS011;4277;51.354;6.740;2022-12-13T13:34:39;14.37;;;8.17;;
8480;SDS011;4277;51.354;6.740;2022-12-13T13:39:57;12.83;;;8.57;;
8480;SDS011;4277;51.354;6.740;2022-12-13T13:42:24;12.10;;;7.90;;
8480;SDS011;4277;51.354;6.740;2022-12-13T13:52:21;12.73;;;7.93;;
8480;SDS011;4277;51.354;6.740;2022-12-13T14:00:20;14.50;;;8.53;;
8480;SDS011;4277;51.354;6.740;2022-12-13T14:08:19;16.67;;;9.90;;
8480;SDS011;4277;51.354;6.740;2022-12-13T14:13:43;18.47;;;9.70;;
8480;SDS011;4277;51.354;6.740;2022-12-13T14:24:34;15.30;;;8.70;;
8480;SDS011;4277;51.354;6.740;2022-12-13T14:29:46;13.20;;;7.77;;
8480;SDS011;4277;51.354;6.740;2022-12-13T14:32:20;13.63;;;8.10;;
8480;SDS011;4277;51.354;6.740;2022-12-13T14:34:47;15.57;;;9.30;;
8480;SDS011;4277;51.354;6.740;2022-12-13T14:37:20;17.77;;;10.00;;
8480;SDS011;4277;51.354;6.740;2022-12-13T14:39:47;15.83;;;9.40;;
8480;SDS011;4277;51.354;6.740;2022-12-13T14:42:20;14.17;;;9.17;;
8480;SDS011;4277;51.354;6.740;2022-12-13T14:44:47;18.63;;;8.97;;
8480;SDS011;4277;51.354;6.740;2022-12-13T14:47:13;14.87;;;8.57;;
8480;SDS011;4277;51.354;6.740;2022-12-13T14:49:40;13.93;;;7.93;;
8480;SDS011;4277;51.354;6.740;2022-12-13T14:52:17;14.00;;;8.43;;
8480;SDS011;4277;51.354;6.740;2022-12-13T14:54:48;12.90;;;7.53;;
8480;SDS011;4277;51.354;6.740;2022-12-13T14:57:16;15.60;;;8.57;;
8480;SDS011;4277;51.354;6.740;2022-12-13T14:59:52;13.17;;;8.10;;
8480;SDS011;4277;51.354;6.740;2022-12-13T15:02:23;11.73;;;7.60;;
8480;SDS011;4277;51.354;6.740;2022-12-13T15:04:53;14.17;;;8.83;;
8480;SDS011;4277;51.354;6.740;2022-12-13T15:07:26;17.63;;;9.50;;
8480;SDS011;4277;51.354;6.740;2022-12-13T15:09:57;16.23;;;8.70;;
8480;SDS011;4277;51.354;6.740;2022-12-13T15:12:24;15.47;;;8.63;;
8480;SDS011;4277;51.354;6.740;2022-12-13T15:17:33;17.63;;;8.63;;
8480;SDS011;4277;51.354;6.740;2022-12-13T15:20:00;16.90;;;9.07;;
8480;SDS011;4277;51.354;6.740;2022-12-13T15:22:26;15.23;;;8.70;;
8480;SDS011;4277;51.354;6.740;2022-12-13T15:24:53;15.47;;;8.73;;
8480;SDS011;4277;51.354;6.740;2022-12-13T15:27:19;17.90;;;8.50;;
8480;SDS011;4277;51.354;6.740;2022-12-13T15:29:46;16.27;;;9.13;;
8480;SDS011;4277;51.354;6.740;2022-12-13T15:32:14;20.13;;;9.00;;
8480;SDS011;4277;51.354;6.740;2022-12-13T15:34:43;15.87;;;8.87;;
8480;SDS011;4277;51.354;6.740;2022-12-13T15:39:42;14.07;;;7.73;;
8480;SDS011;4277;51.354;6.740;2022-12-13T15:42:31;14.33;;;8.20;;
8480;SDS011;4277;51.354;6.740;2022-12-13T15:44:59;11.73;;;7.20;;
8480;SDS011;4277;51.354;6.740;2022-12-13T15:47:26;14.13;;;7.80;;
8480;SDS011;4277;51.354;6.740;2022-12-13T15:49:53;15.60;;;8.70;;
8480;SDS011;4277;51.354;6.740;2022-12-13T15:52:30;19.23;;;9.20;;
8480;SDS011;4277;51.354;6.740;2022-12-13T15:54:58;14.80;;;8.67;;
8480;SDS011;4277;51.354;6.740;2022-12-13T15:57:26;15.53;;;8.33;;
8480;SDS011;4277;51.354;6.740;2022-12-13T16:00:03;14.33;;;8.03;;
8480;SDS011;4277;51.354;6.740;2022-12-13T16:02:31;17.07;;;8.57;;
8480;SDS011;4277;51.354;6.740;2022-12-13T16:05:04;15.83;;;8.90;;
8480;SDS011;4277;51.354;6.740;2022-12-13T16:07:34;16.30;;;9.33;;
8480;SDS011;4277;51.354;6.740;2022-12-13T16:10:03;16.87;;;9.93;;
8480;SDS011;4277;51.354;6.740;2022-12-13T16:12:41;19.47;;;10.87;;
8480;SDS011;4277;51.354;6.740;2022-12-13T16:15:21;18.10;;;10.73;;
8480;SDS011;4277;51.354;6.740;2022-12-13T16:17:48;17.90;;;9.87;;
8480;SDS011;4277;51.354;6.740;2022-12-13T16:20:15;13.87;;;9.10;;
8480;SDS011;4277;51.354;6.740;2022-12-13T16:22:42;13.43;;;8.87;;
8480;SDS011;4277;51.354;6.740;2022-12-13T16:25:11;14.70;;;9.30;;
8480;SDS011;4277;51.354;6.740;2022-12-13T16:27:38;15.67;;;9.00;;
8480;SDS011;4277;51.354;6.740;2022-12-13T16:30:14;17.50;;;9.40;;
8480;SDS011;4277;51.354;6.740;2022-12-13T16:32:46;14.03;;;8.20;;
8480;SDS011;4277;51.354;6.740;2022-12-13T16:35:13;12.60;;;8.20;;
8480;SDS011;4277;51.354;6.740;2022-12-13T16:37:39;13.43;;;8.03;;
8480;SDS011;4277;51.354;6.740;2022-12-13T16:40:24;15.17;;;8.50;;
8480;SDS011;4277;51.354;6.740;2022-12-13T16:42:54;13.60;;;7.83;;
8480;SDS011;4277;51.354;6.740;2022-12-13T16:45:20;16.00;;;8.90;;
8480;SDS011;4277;51.354;6.740;2022-12-13T16:47:46;15.30;;;8.33;;
8480;SDS011;4277;51.354;6.740;2022-12-13T16:50:14;13.63;;;8.23;;